sensor_id;sensor_type;location;lat;lon;timestamp;temperature;humidity
40538;DHT22;27925;41.874;12.526;2023-07-20T00:01:12;31.10;60.00
40538;DHT22;27925;41.874;12.526;2023-07-20T00:03:38;31.10;60.00
40538;DHT22;27925;41.874;12.526;2023-07-20T00:06:04;31.10;60.30
40538;DHT22;27925;41.874;12.526;2023-07-20T00:08:30;31.00;60.70
40538;DHT22;27925;41.874;12.526;2023-07-20T00:10:56;30.90;61.00
40538;DHT22;27925;41.874;12.526;2023-07-20T00:13:21;30.90;61.30
40538;DHT22;27925;41.874;12.526;2023-07-20T00:15:47;30.90;61.60
40538;DHT22;27925;41.874;12.526;2023-07-20T00:18:13;30.90;61.50
40538;DHT22;27925;41.874;12.526;2023-07-20T00:20:39;30.90;61.60
40538;DHT22;27925;41.874;12.526;2023-07-20T00:23:05;30.90;62.20
40538;DHT22;27925;41.874;12.526;2023-07-20T00:25:31;30.90;62.60
40538;DHT22;27925;41.874;12.526;2023-07-20T00:27:56;30.90;62.90
40538;DHT22;27925;41.874;12.526;2023-07-20T00:30:22;30.90;63.20
40538;DHT22;27925;41.874;12.526;2023-07-20T00:32:48;30.90;63.30
40538;DHT22;27925;41.874;12.526;2023-07-20T00:35:14;30.90;63.30
40538;DHT22;27925;41.874;12.526;2023-07-20T00:37:39;30.80;63.50
40538;DHT22;27925;41.874;12.526;2023-07-20T00:40:06;30.80;63.30
40538;DHT22;27925;41.874;12.526;2023-07-20T00:42:35;30.80;63.00
40538;DHT22;27925;41.874;12.526;2023-07-20T00:45:00;30.70;62.30
40538;DHT22;27925;41.874;12.526;2023-07-20T00:47:27;30.60;61.80
40538;DHT22;27925;41.874;12.526;2023-07-20T00:49:53;30.60;61.70
40538;DHT22;27925;41.874;12.526;2023-07-20T00:52:21;30.50;61.10
40538;DHT22;27925;41.874;12.526;2023-07-20T00:54:49;30.50;61.00
40538;DHT22;27925;41.874;12.526;2023-07-20T00:57:15;30.50;61.00
40538;DHT22;27925;41.874;12.526;2023-07-20T00:59:43;30.40;60.20
40538;DHT22;27925;41.874;12.526;2023-07-20T01:02:09;30.30;60.10
40538;DHT22;27925;41.874;12.526;2023-07-20T01:04:35;30.20;59.90
40538;DHT22;27925;41.874;12.526;2023-07-20T01:07:08;30.20;59.70
40538;DHT22;27925;41.874;12.526;2023-07-20T01:12:35;30.00;59.90
40538;DHT22;27925;41.874;12.526;2023-07-20T01:15:06;30.00;59.90
40538;DHT22;27925;41.874;12.526;2023-07-20T01:17:33;29.90;59.50
40538;DHT22;27925;41.874;12.526;2023-07-20T01:19:59;29.90;59.50
40538;DHT22;27925;41.874;12.526;2023-07-20T01:33:42;29.90;59.20
40538;DHT22;27925;41.874;12.526;2023-07-20T01:36:08;29.90;59.20
40538;DHT22;27925;41.874;12.526;2023-07-20T01:38:36;29.80;59.10
40538;DHT22;27925;41.874;12.526;2023-07-20T01:41:02;29.80;59.00
40538;DHT22;27925;41.874;12.526;2023-07-20T01:43:28;29.70;58.90
40538;DHT22;27925;41.874;12.526;2023-07-20T01:45:54;29.70;59.00
40538;DHT22;27925;41.874;12.526;2023-07-20T01:48:19;29.70;58.70
40538;DHT22;27925;41.874;12.526;2023-07-20T01:50:45;29.60;58.60
40538;DHT22;27925;41.874;12.526;2023-07-20T01:53:11;29.60;58.40
40538;DHT22;27925;41.874;12.526;2023-07-20T01:55:37;29.60;58.30
40538;DHT22;27925;41.874;12.526;2023-07-20T01:58:02;29.70;58.10
40538;DHT22;27925;41.874;12.526;2023-07-20T02:00:29;29.70;58.10
40538;DHT22;27925;41.874;12.526;2023-07-20T02:02:55;29.70;57.80
40538;DHT22;27925;41.874;12.526;2023-07-20T02:05:20;29.60;58.10
40538;DHT22;27925;41.874;12.526;2023-07-20T02:07:46;29.60;58.30
40538;DHT22;27925;41.874;12.526;2023-07-20T02:10:12;29.50;58.30
40538;DHT22;27925;41.874;12.526;2023-07-20T02:12:37;29.50;58.40
40538;DHT22;27925;41.874;12.526;2023-07-20T02:15:04;29.50;58.20
40538;DHT22;27925;41.874;12.526;2023-07-20T02:17:30;29.60;58.10
40538;DHT22;27925;41.874;12.526;2023-07-20T02:19:56;29.50;58.00
40538;DHT22;27925;41.874;12.526;2023-07-20T02:22:25;29.60;57.90
40538;DHT22;27925;41.874;12.526;2023-07-20T02:24:50;29.60;57.70
40538;DHT22;27925;41.874;12.526;2023-07-20T02:27:16;29.60;57.30
40538;DHT22;27925;41.874;12.526;2023-07-20T02:29:42;29.60;57.20
40538;DHT22;27925;41.874;12.526;2023-07-20T02:32:08;29.60;57.20
40538;DHT22;27925;41.874;12.526;2023-07-20T02:34:35;29.50;57.10
40538;DHT22;27925;41.874;12.526;2023-07-20T02:37:01;29.50;57.30
40538;DHT22;27925;41.874;12.526;2023-07-20T02:39:30;29.50;57.30
40538;DHT22;27925;41.874;12.526;2023-07-20T02:41:56;29.50;57.10
40538;DHT22;27925;41.874;12.526;2023-07-20T02:44:21;29.50;56.90
40538;DHT22;27925;41.874;12.526;2023-07-20T02:46:47;29.40;56.70
40538;DHT22;27925;41.874;12.526;2023-07-20T02:49:15;29.40;56.70
40538;DHT22;27925;41.874;12.526;2023-07-20T02:51:41;29.40;56.90
40538;DHT22;27925;41.874;12.526;2023-07-20T02:54:07;29.40;57.40
40538;DHT22;27925;41.874;12.526;2023-07-20T02:56:32;29.40;56.80
40538;DHT22;27925;41.874;12.526;2023-07-20T02:58:58;29.40;56.60
40538;DHT22;27925;41.874;12.526;2023-07-20T03:01:24;29.40;56.30
40538;DHT22;27925;41.874;12.526;2023-07-20T03:03:50;29.40;56.20
40538;DHT22;27925;41.874;12.526;2023-07-20T03:06:16;29.40;56.30
40538;DHT22;27925;41.874;12.526;2023-07-20T03:08:42;29.40;56.20
40538;DHT22;27925;41.874;12.526;2023-07-20T03:11:13;29.40;56.10
40538;DHT22;27925;41.874;12.526;2023-07-20T03:13:41;29.40;56.30
40538;DHT22;27925;41.874;12.526;2023-07-20T03:16:08;29.30;56.40
40538;DHT22;27925;41.874;12.526;2023-07-20T03:18:37;29.30;56.50
40538;DHT22;27925;41.874;12.526;2023-07-20T03:21:04;29.20;56.70
40538;DHT22;27925;41.874;12.526;2023-07-20T03:23:30;29.10;56.90
40538;DHT22;27925;41.874;12.526;2023-07-20T03:25:56;29.10;56.90
40538;DHT22;27925;41.874;12.526;2023-07-20T03:28:22;29.10;57.10
40538;DHT22;27925;41.874;12.526;2023-07-20T03:30:55;29.00;57.10
40538;DHT22;27925;41.874;12.526;2023-07-20T03:33:27;29.00;57.40
40538;DHT22;27925;41.874;12.526;2023-07-20T03:35:53;29.00;57.50
40538;DHT22;27925;41.874;12.526;2023-07-20T03:38:20;28.90;57.40
40538;DHT22;27925;41.874;12.526;2023-07-20T03:40:53;28.90;57.70
40538;DHT22;27925;41.874;12.526;2023-07-20T03:43:18;28.90;57.70
40538;DHT22;27925;41.874;12.526;2023-07-20T03:45:44;28.80;57.70
40538;DHT22;27925;41.874;12.526;2023-07-20T03:48:20;28.90;57.80
40538;DHT22;27925;41.874;12.526;2023-07-20T03:50:49;28.90;57.90
40538;DHT22;27925;41.874;12.526;2023-07-20T03:53:15;28.90;57.80
40538;DHT22;27925;41.874;12.526;2023-07-20T03:55:50;28.80;57.80
40538;DHT22;27925;41.874;12.526;2023-07-20T03:58:17;28.70;58.20
40538;DHT22;27925;41.874;12.526;2023-07-20T04:00:46;28.70;58.30
40538;DHT22;27925;41.874;12.526;2023-07-20T04:03:13;28.70;58.30
40538;DHT22;27925;41.874;12.526;2023-07-20T04:05:39;28.70;58.50
40538;DHT22;27925;41.874;12.526;2023-07-20T04:08:05;28.70;58.70
40538;DHT22;27925;41.874;12.526;2023-07-20T04:10:30;28.70;58.50
40538;DHT22;27925;41.874;12.526;2023-07-20T04:12:56;28.70;58.50
40538;DHT22;27925;41.874;12.526;2023-07-20T04:15:22;28.80;58.60
40538;DHT22;27925;41.874;12.526;2023-07-20T04:17:48;28.80;58.90
40538;DHT22;27925;41.874;12.526;2023-07-20T04:20:14;28.80;58.90
40538;DHT22;27925;41.874;12.526;2023-07-20T04:22:39;28.80;58.90
40538;DHT22;27925;41.874;12.526;2023-07-20T04:25:05;28.80;59.10
40538;DHT22;27925;41.874;12.526;2023-07-20T04:27:31;28.80;59.20
40538;DHT22;27925;41.874;12.526;2023-07-20T04:30:00;28.80;58.70
40538;DHT22;27925;41.874;12.526;2023-07-20T04:32:25;28.80;58.80
40538;DHT22;27925;41.874;12.526;2023-07-20T04:34:51;28.90;58.70
40538;DHT22;27925;41.874;12.526;2023-07-20T04:37:17;28.90;58.60
40538;DHT22;27925;41.874;12.526;2023-07-20T04:39:42;29.00;58.60
40538;DHT22;27925;41.874;12.526;2023-07-20T04:42:08;28.90;58.50
40538;DHT22;27925;41.874;12.526;2023-07-20T04:44:34;28.90;58.80
40538;DHT22;27925;41.874;12.526;2023-07-20T04:47:00;29.00;58.50
40538;DHT22;27925;41.874;12.526;2023-07-20T04:49:25;29.00;58.30
40538;DHT22;27925;41.874;12.526;2023-07-20T04:51:51;29.10;58.10
40538;DHT22;27925;41.874;12.526;2023-07-20T04:54:17;29.10;58.10
40538;DHT22;27925;41.874;12.526;2023-07-20T04:56:44;29.10;57.60
40538;DHT22;27925;41.874;12.526;2023-07-20T04:59:09;29.20;57.50
40538;DHT22;27925;41.874;12.526;2023-07-20T05:01:35;29.30;57.30
40538;DHT22;27925;41.874;12.526;2023-07-20T05:04:01;29.30;57.10
40538;DHT22;27925;41.874;12.526;2023-07-20T05:06:27;29.30;57.10
40538;DHT22;27925;41.874;12.526;2023-07-20T05:08:53;29.30;57.30
40538;DHT22;27925;41.874;12.526;2023-07-20T05:11:19;29.20;57.10
40538;DHT22;27925;41.874;12.526;2023-07-20T05:13:45;29.30;57.30
40538;DHT22;27925;41.874;12.526;2023-07-20T05:16:11;29.30;57.50
40538;DHT22;27925;41.874;12.526;2023-07-20T05:18:36;29.30;57.70
40538;DHT22;27925;41.874;12.526;2023-07-20T05:21:02;29.40;57.60
40538;DHT22;27925;41.874;12.526;2023-07-20T05:23:28;29.40;57.80
40538;DHT22;27925;41.874;12.526;2023-07-20T05:25:55;29.50;57.70
40538;DHT22;27925;41.874;12.526;2023-07-20T05:28:22;29.70;57.60
40538;DHT22;27925;41.874;12.526;2023-07-20T05:30:47;29.90;57.30
40538;DHT22;27925;41.874;12.526;2023-07-20T05:33:13;30.10;57.10
40538;DHT22;27925;41.874;12.526;2023-07-20T05:35:39;30.30;56.90
40538;DHT22;27925;41.874;12.526;2023-07-20T05:38:05;30.40;56.70
40538;DHT22;27925;41.874;12.526;2023-07-20T05:40:32;30.50;56.60
40538;DHT22;27925;41.874;12.526;2023-07-20T05:42:57;30.80;56.00
40538;DHT22;27925;41.874;12.526;2023-07-20T05:45:24;31.20;55.70
40538;DHT22;27925;41.874;12.526;2023-07-20T05:47:50;31.50;55.50
40538;DHT22;27925;41.874;12.526;2023-07-20T05:50:15;31.70;54.90
40538;DHT22;27925;41.874;12.526;2023-07-20T05:52:41;32.00;55.30
40538;DHT22;27925;41.874;12.526;2023-07-20T05:55:07;32.20;54.40
40538;DHT22;27925;41.874;12.526;2023-07-20T05:57:33;32.50;54.00
40538;DHT22;27925;41.874;12.526;2023-07-20T05:59:59;32.60;53.70
40538;DHT22;27925;41.874;12.526;2023-07-20T06:02:24;32.80;53.20
40538;DHT22;27925;41.874;12.526;2023-07-20T06:04:50;33.00;52.80
40538;DHT22;27925;41.874;12.526;2023-07-20T06:07:16;33.10;52.40
40538;DHT22;27925;41.874;12.526;2023-07-20T06:09:41;33.30;52.00
40538;DHT22;27925;41.874;12.526;2023-07-20T06:12:08;33.50;51.80
40538;DHT22;27925;41.874;12.526;2023-07-20T06:14:34;33.60;51.40
40538;DHT22;27925;41.874;12.526;2023-07-20T06:16:59;33.80;51.40
40538;DHT22;27925;41.874;12.526;2023-07-20T06:19:25;34.00;51.20
40538;DHT22;27925;41.874;12.526;2023-07-20T06:21:51;34.00;50.90
40538;DHT22;27925;41.874;12.526;2023-07-20T06:24:17;34.10;50.80
40538;DHT22;27925;41.874;12.526;2023-07-20T06:26:43;34.00;50.90
40538;DHT22;27925;41.874;12.526;2023-07-20T06:29:08;34.10;50.80
40538;DHT22;27925;41.874;12.526;2023-07-20T06:31:35;34.00;50.60
40538;DHT22;27925;41.874;12.526;2023-07-20T06:34:01;34.00;50.60
40538;DHT22;27925;41.874;12.526;2023-07-20T06:36:27;34.20;50.50
40538;DHT22;27925;41.874;12.526;2023-07-20T06:38:54;34.40;50.00
40538;DHT22;27925;41.874;12.526;2023-07-20T06:41:20;34.60;50.00
40538;DHT22;27925;41.874;12.526;2023-07-20T06:43:46;34.70;49.60
40538;DHT22;27925;41.874;12.526;2023-07-20T06:46:12;34.70;49.80
40538;DHT22;27925;41.874;12.526;2023-07-20T06:48:37;34.80;49.50
40538;DHT22;27925;41.874;12.526;2023-07-20T06:51:03;34.80;49.50
40538;DHT22;27925;41.874;12.526;2023-07-20T06:53:29;35.00;49.30
40538;DHT22;27925;41.874;12.526;2023-07-20T06:55:55;35.10;49.30
40538;DHT22;27925;41.874;12.526;2023-07-20T06:58:24;35.20;49.20
40538;DHT22;27925;41.874;12.526;2023-07-20T07:00:50;35.20;49.20
40538;DHT22;27925;41.874;12.526;2023-07-20T07:03:16;35.20;49.00
40538;DHT22;27925;41.874;12.526;2023-07-20T07:05:41;35.50;48.70
40538;DHT22;27925;41.874;12.526;2023-07-20T07:08:07;35.60;48.40
40538;DHT22;27925;41.874;12.526;2023-07-20T07:10:35;35.60;48.40
40538;DHT22;27925;41.874;12.526;2023-07-20T07:13:01;35.80;48.30
40538;DHT22;27925;41.874;12.526;2023-07-20T07:15:27;35.80;48.30
40538;DHT22;27925;41.874;12.526;2023-07-20T07:17:53;35.90;48.50
40538;DHT22;27925;41.874;12.526;2023-07-20T07:20:18;35.80;48.60
40538;DHT22;27925;41.874;12.526;2023-07-20T07:22:44;35.80;48.60
40538;DHT22;27925;41.874;12.526;2023-07-20T07:25:11;35.90;48.70
40538;DHT22;27925;41.874;12.526;2023-07-20T07:27:37;36.00;48.40
40538;DHT22;27925;41.874;12.526;2023-07-20T07:30:03;36.10;48.20
40538;DHT22;27925;41.874;12.526;2023-07-20T07:32:29;36.10;48.30
40538;DHT22;27925;41.874;12.526;2023-07-20T07:34:55;36.10;48.50
40538;DHT22;27925;41.874;12.526;2023-07-20T07:37:21;36.10;48.40
40538;DHT22;27925;41.874;12.526;2023-07-20T07:39:47;36.00;48.50
40538;DHT22;27925;41.874;12.526;2023-07-20T07:42:12;35.80;48.70
40538;DHT22;27925;41.874;12.526;2023-07-20T07:44:38;35.60;48.90
40538;DHT22;27925;41.874;12.526;2023-07-20T07:47:04;35.70;48.80
40538;DHT22;27925;41.874;12.526;2023-07-20T07:49:30;35.70;48.60
40538;DHT22;27925;41.874;12.526;2023-07-20T07:51:57;35.80;48.50
40538;DHT22;27925;41.874;12.526;2023-07-20T07:54:22;35.80;48.30
40538;DHT22;27925;41.874;12.526;2023-07-20T07:56:48;35.80;48.20
40538;DHT22;27925;41.874;12.526;2023-07-20T07:59:14;35.90;48.10
40538;DHT22;27925;41.874;12.526;2023-07-20T08:01:40;35.80;48.00
40538;DHT22;27925;41.874;12.526;2023-07-20T08:04:05;35.80;48.30
40538;DHT22;27925;41.874;12.526;2023-07-20T08:06:31;35.80;48.20
40538;DHT22;27925;41.874;12.526;2023-07-20T08:08:57;35.80;48.10
40538;DHT22;27925;41.874;12.526;2023-07-20T08:11:23;35.70;48.10
40538;DHT22;27925;41.874;12.526;2023-07-20T08:13:49;35.70;48.30
40538;DHT22;27925;41.874;12.526;2023-07-20T08:16:15;35.70;47.90
40538;DHT22;27925;41.874;12.526;2023-07-20T08:18:40;35.50;47.80
40538;DHT22;27925;41.874;12.526;2023-07-20T08:21:06;35.50;48.00
40538;DHT22;27925;41.874;12.526;2023-07-20T08:23:32;35.40;48.50
40538;DHT22;27925;41.874;12.526;2023-07-20T08:25:58;35.30;48.80
40538;DHT22;27925;41.874;12.526;2023-07-20T08:28:24;35.30;49.40
40538;DHT22;27925;41.874;12.526;2023-07-20T08:30:51;35.10;49.90
40538;DHT22;27925;41.874;12.526;2023-07-20T08:33:18;35.00;50.50
40538;DHT22;27925;41.874;12.526;2023-07-20T08:35:47;34.90;51.00
40538;DHT22;27925;41.874;12.526;2023-07-20T08:38:13;35.00;51.40
40538;DHT22;27925;41.874;12.526;2023-07-20T08:40:44;34.90;52.00
40538;DHT22;27925;41.874;12.526;2023-07-20T08:43:14;34.80;52.50
40538;DHT22;27925;41.874;12.526;2023-07-20T08:45:42;34.70;53.20
40538;DHT22;27925;41.874;12.526;2023-07-20T08:48:11;34.60;53.80
40538;DHT22;27925;41.874;12.526;2023-07-20T08:50:38;34.60;54.10
40538;DHT22;27925;41.874;12.526;2023-07-20T08:53:04;34.60;53.80
40538;DHT22;27925;41.874;12.526;2023-07-20T08:55:30;34.60;53.60
40538;DHT22;27925;41.874;12.526;2023-07-20T08:57:58;34.70;53.30
40538;DHT22;27925;41.874;12.526;2023-07-20T09:00:26;34.70;53.30
40538;DHT22;27925;41.874;12.526;2023-07-20T09:02:55;34.60;53.80
40538;DHT22;27925;41.874;12.526;2023-07-20T09:05:23;34.60;54.10
40538;DHT22;27925;41.874;12.526;2023-07-20T09:07:49;34.60;54.30
40538;DHT22;27925;41.874;12.526;2023-07-20T09:10:15;34.60;54.00
40538;DHT22;27925;41.874;12.526;2023-07-20T09:12:43;34.60;54.00
40538;DHT22;27925;41.874;12.526;2023-07-20T09:15:10;34.70;54.40
40538;DHT22;27925;41.874;12.526;2023-07-20T09:17:36;34.70;54.40
40538;DHT22;27925;41.874;12.526;2023-07-20T09:20:05;34.70;54.30
40538;DHT22;27925;41.874;12.526;2023-07-20T09:22:33;34.60;53.70
40538;DHT22;27925;41.874;12.526;2023-07-20T09:24:59;34.70;54.00
40538;DHT22;27925;41.874;12.526;2023-07-20T09:27:45;34.70;54.30
40538;DHT22;27925;41.874;12.526;2023-07-20T09:30:13;34.60;52.60
40538;DHT22;27925;41.874;12.526;2023-07-20T09:32:46;34.70;53.90
40538;DHT22;27925;41.874;12.526;2023-07-20T09:35:17;34.60;53.60
40538;DHT22;27925;41.874;12.526;2023-07-20T09:37:47;34.60;53.20
40538;DHT22;27925;41.874;12.526;2023-07-20T09:40:17;34.60;53.10
40538;DHT22;27925;41.874;12.526;2023-07-20T09:42:43;34.70;53.20
40538;DHT22;27925;41.874;12.526;2023-07-20T09:45:09;34.70;53.30
40538;DHT22;27925;41.874;12.526;2023-07-20T09:47:38;34.70;53.10
40538;DHT22;27925;41.874;12.526;2023-07-20T09:50:05;34.70;53.20
40538;DHT22;27925;41.874;12.526;2023-07-20T09:52:39;34.80;52.80
40538;DHT22;27925;41.874;12.526;2023-07-20T09:55:07;34.80;52.00
40538;DHT22;27925;41.874;12.526;2023-07-20T09:57:35;34.70;54.10
40538;DHT22;27925;41.874;12.526;2023-07-20T10:00:03;34.70;53.60
40538;DHT22;27925;41.874;12.526;2023-07-20T10:02:33;34.70;53.70
40538;DHT22;27925;41.874;12.526;2023-07-20T10:05:03;34.70;53.30
40538;DHT22;27925;41.874;12.526;2023-07-20T10:07:30;34.70;52.80
40538;DHT22;27925;41.874;12.526;2023-07-20T10:09:59;34.60;53.00
40538;DHT22;27925;41.874;12.526;2023-07-20T10:12:27;34.70;52.60
40538;DHT22;27925;41.874;12.526;2023-07-20T10:17:38;34.60;51.40
40538;DHT22;27925;41.874;12.526;2023-07-20T10:20:06;34.70;52.50
40538;DHT22;27925;41.874;12.526;2023-07-20T10:22:36;34.80;52.40
40538;DHT22;27925;41.874;12.526;2023-07-20T10:25:02;34.80;52.50
40538;DHT22;27925;41.874;12.526;2023-07-20T10:27:30;34.80;52.30
40538;DHT22;27925;41.874;12.526;2023-07-20T10:29:57;34.80;52.60
40538;DHT22;27925;41.874;12.526;2023-07-20T10:32:24;34.90;52.70
40538;DHT22;27925;41.874;12.526;2023-07-20T10:34:51;35.00;52.50
40538;DHT22;27925;41.874;12.526;2023-07-20T10:37:46;34.90;52.80
40538;DHT22;27925;41.874;12.526;2023-07-20T10:40:36;34.80;51.60
40538;DHT22;27925;41.874;12.526;2023-07-20T10:43:05;34.90;51.40
40538;DHT22;27925;41.874;12.526;2023-07-20T10:45:47;35.20;52.40
40538;DHT22;27925;41.874;12.526;2023-07-20T10:48:24;35.20;51.10
40538;DHT22;27925;41.874;12.526;2023-07-20T10:51:12;35.20;51.00
40538;DHT22;27925;41.874;12.526;2023-07-20T10:53:40;35.40;51.80
40538;DHT22;27925;41.874;12.526;2023-07-20T10:58:33;35.50;50.80
40538;DHT22;27925;41.874;12.526;2023-07-20T11:01:03;35.50;50.40
40538;DHT22;27925;41.874;12.526;2023-07-20T11:03:31;35.60;50.10
40538;DHT22;27925;41.874;12.526;2023-07-20T11:05:57;35.70;50.20
40538;DHT22;27925;41.874;12.526;2023-07-20T11:08:42;35.80;50.50
40538;DHT22;27925;41.874;12.526;2023-07-20T11:11:25;35.80;50.50
40538;DHT22;27925;41.874;12.526;2023-07-20T11:13:58;35.90;50.00
40538;DHT22;27925;41.874;12.526;2023-07-20T11:16:40;36.00;52.80
40538;DHT22;27925;41.874;12.526;2023-07-20T11:19:20;36.10;53.90
40538;DHT22;27925;41.874;12.526;2023-07-20T11:21:49;36.10;53.30
40538;DHT22;27925;41.874;12.526;2023-07-20T11:24:16;36.20;55.40
40538;DHT22;27925;41.874;12.526;2023-07-20T11:29:07;36.20;55.50
40538;DHT22;27925;41.874;12.526;2023-07-20T11:31:42;36.20;55.60
40538;DHT22;27925;41.874;12.526;2023-07-20T11:34:11;36.30;55.80
40538;DHT22;27925;41.874;12.526;2023-07-20T11:36:41;36.40;55.90
40538;DHT22;27925;41.874;12.526;2023-07-20T11:39:12;36.40;55.70
40538;DHT22;27925;41.874;12.526;2023-07-20T11:41:38;36.40;56.00
40538;DHT22;27925;41.874;12.526;2023-07-20T11:44:06;36.40;56.50
40538;DHT22;27925;41.874;12.526;2023-07-20T11:46:33;36.30;56.90
40538;DHT22;27925;41.874;12.526;2023-07-20T11:49:00;36.20;57.00
40538;DHT22;27925;41.874;12.526;2023-07-20T11:51:31;36.20;57.00
40538;DHT22;27925;41.874;12.526;2023-07-20T11:53:58;36.20;56.90
40538;DHT22;27925;41.874;12.526;2023-07-20T11:56:26;36.20;57.10
40538;DHT22;27925;41.874;12.526;2023-07-20T11:58:57;36.20;56.90
40538;DHT22;27925;41.874;12.526;2023-07-20T12:01:25;36.20;56.90
40538;DHT22;27925;41.874;12.526;2023-07-20T12:03:55;36.20;56.70
40538;DHT22;27925;41.874;12.526;2023-07-20T12:06:27;36.20;56.90
40538;DHT22;27925;41.874;12.526;2023-07-20T12:08:56;36.20;56.50
40538;DHT22;27925;41.874;12.526;2023-07-20T12:11:43;36.30;56.80
40538;DHT22;27925;41.874;12.526;2023-07-20T12:14:10;36.40;56.60
40538;DHT22;27925;41.874;12.526;2023-07-20T12:16:37;36.40;56.80
40538;DHT22;27925;41.874;12.526;2023-07-20T12:19:10;36.40;55.60
40538;DHT22;27925;41.874;12.526;2023-07-20T12:21:38;36.40;56.70
40538;DHT22;27925;41.874;12.526;2023-07-20T12:24:04;36.50;56.70
40538;DHT22;27925;41.874;12.526;2023-07-20T12:26:31;36.50;56.00
40538;DHT22;27925;41.874;12.526;2023-07-20T12:28:57;36.50;56.70
40538;DHT22;27925;41.874;12.526;2023-07-20T12:31:24;36.50;56.70
40538;DHT22;27925;41.874;12.526;2023-07-20T12:33:51;36.50;56.80
40538;DHT22;27925;41.874;12.526;2023-07-20T12:36:17;36.50;56.70
40538;DHT22;27925;41.874;12.526;2023-07-20T12:38:43;36.50;56.70
40538;DHT22;27925;41.874;12.526;2023-07-20T12:41:10;36.50;56.60
40538;DHT22;27925;41.874;12.526;2023-07-20T12:43:43;36.50;56.80
40538;DHT22;27925;41.874;12.526;2023-07-20T12:46:10;36.50;56.70
40538;DHT22;27925;41.874;12.526;2023-07-20T12:48:37;36.50;56.60
40538;DHT22;27925;41.874;12.526;2023-07-20T12:51:05;36.60;56.50
40538;DHT22;27925;41.874;12.526;2023-07-20T12:53:32;36.70;56.00
40538;DHT22;27925;41.874;12.526;2023-07-20T12:56:01;36.70;56.00
40538;DHT22;27925;41.874;12.526;2023-07-20T12:58:27;36.80;55.90
40538;DHT22;27925;41.874;12.526;2023-07-20T13:00:53;36.80;55.70
40538;DHT22;27925;41.874;12.526;2023-07-20T13:03:19;36.70;55.90
40538;DHT22;27925;41.874;12.526;2023-07-20T13:05:46;36.80;55.70
40538;DHT22;27925;41.874;12.526;2023-07-20T13:08:11;36.80;56.00
40538;DHT22;27925;41.874;12.526;2023-07-20T13:10:38;36.70;56.10
40538;DHT22;27925;41.874;12.526;2023-07-20T13:13:07;36.80;56.30
40538;DHT22;27925;41.874;12.526;2023-07-20T13:15:41;36.80;56.30
40538;DHT22;27925;41.874;12.526;2023-07-20T13:18:07;36.90;56.20
40538;DHT22;27925;41.874;12.526;2023-07-20T13:20:33;36.90;55.90
40538;DHT22;27925;41.874;12.526;2023-07-20T13:22:58;37.00;55.90
40538;DHT22;27925;41.874;12.526;2023-07-20T13:25:24;37.00;55.80
40538;DHT22;27925;41.874;12.526;2023-07-20T13:27:50;37.00;55.50
40538;DHT22;27925;41.874;12.526;2023-07-20T13:30:16;37.00;55.50
40538;DHT22;27925;41.874;12.526;2023-07-20T13:32:43;37.10;55.40
40538;DHT22;27925;41.874;12.526;2023-07-20T13:35:09;37.10;55.70
40538;DHT22;27925;41.874;12.526;2023-07-20T13:37:36;37.10;55.50
40538;DHT22;27925;41.874;12.526;2023-07-20T13:40:01;37.10;55.50
40538;DHT22;27925;41.874;12.526;2023-07-20T13:42:29;37.10;55.30
40538;DHT22;27925;41.874;12.526;2023-07-20T13:44:55;37.10;55.30
40538;DHT22;27925;41.874;12.526;2023-07-20T13:47:21;37.20;55.30
40538;DHT22;27925;41.874;12.526;2023-07-20T13:49:46;37.20;55.20
40538;DHT22;27925;41.874;12.526;2023-07-20T13:52:12;37.20;55.00
40538;DHT22;27925;41.874;12.526;2023-07-20T13:54:38;37.20;54.80
40538;DHT22;27925;41.874;12.526;2023-07-20T13:57:03;37.20;54.50
40538;DHT22;27925;41.874;12.526;2023-07-20T13:59:29;37.20;54.50
40538;DHT22;27925;41.874;12.526;2023-07-20T14:01:55;37.20;54.70
40538;DHT22;27925;41.874;12.526;2023-07-20T14:04:20;37.20;54.70
40538;DHT22;27925;41.874;12.526;2023-07-20T14:06:46;37.20;54.60
40538;DHT22;27925;41.874;12.526;2023-07-20T14:09:13;37.30;54.80
40538;DHT22;27925;41.874;12.526;2023-07-20T14:11:38;37.30;54.80
40538;DHT22;27925;41.874;12.526;2023-07-20T14:14:04;37.30;54.90
40538;DHT22;27925;41.874;12.526;2023-07-20T14:16:30;37.30;55.10
40538;DHT22;27925;41.874;12.526;2023-07-20T14:18:57;37.30;54.90
40538;DHT22;27925;41.874;12.526;2023-07-20T14:21:23;37.30;54.80
40538;DHT22;27925;41.874;12.526;2023-07-20T14:23:50;37.30;54.90
40538;DHT22;27925;41.874;12.526;2023-07-20T14:26:16;37.30;54.80
40538;DHT22;27925;41.874;12.526;2023-07-20T14:28:42;37.30;54.50
40538;DHT22;27925;41.874;12.526;2023-07-20T14:31:07;37.30;54.40
